createdAt,value
2018-03-20T00:02:21.250Z,50.70
2018-03-20T00:04:48.775Z,50.30
2018-03-20T00:07:17.759Z,50.50
2018-03-20T00:09:45.714Z,50.50
2018-03-20T00:12:13.241Z,50.10
2018-03-20T00:14:40.974Z,49.70
2018-03-20T00:17:09.929Z,51.00
2018-03-20T00:19:37.476Z,51.00
2018-03-20T00:22:05.920Z,50.00
2018-03-20T00:24:34.044Z,50.90
2018-03-20T00:27:01.574Z,50.10
2018-03-20T00:29:29.080Z,50.60
2018-03-20T00:31:56.609Z,50.00
2018-03-20T00:34:24.113Z,49.90
2018-03-20T00:36:52.532Z,50.10
2018-03-20T00:39:20.116Z,50.00
2018-03-20T00:41:47.647Z,50.00
2018-03-20T00:44:15.621Z,49.30
2018-03-20T00:46:43.138Z,48.70
2018-03-20T00:49:11.435Z,48.80
2018-03-20T00:51:38.943Z,48.60
2018-03-20T00:54:06.638Z,48.10
2018-03-20T00:56:38.446Z,47.60
2018-03-20T00:59:05.985Z,47.60
2018-03-20T01:01:33.494Z,47.50
2018-03-20T01:04:01.490Z,47.40
2018-03-20T01:06:29.908Z,47.80
2018-03-20T01:08:57.426Z,47.20
2018-03-20T01:11:25.780Z,47.00
2018-03-20T01:13:54.028Z,47.00
2018-03-20T01:16:21.550Z,47.00
2018-03-20T01:18:50.470Z,47.40
2018-03-20T01:21:21.820Z,47.30
2018-03-20T01:23:49.312Z,47.20
2018-03-20T01:26:16.850Z,47.10
2018-03-20T01:28:44.369Z,47.00
2018-03-20T01:31:16.629Z,47.60
2018-03-20T01:33:44.766Z,47.60
2018-03-20T01:36:12.370Z,47.30
2018-03-20T01:38:40.659Z,47.60
2018-03-20T01:41:08.197Z,47.50
2018-03-20T01:43:36.488Z,47.80
2018-03-20T01:46:04.761Z,48.50
2018-03-20T01:48:33.148Z,48.50
2018-03-20T01:51:00.784Z,48.40
2018-03-20T01:53:28.390Z,47.90
2018-03-20T01:55:59.807Z,48.20
2018-03-20T01:58:28.099Z,49.90
2018-03-20T02:00:55.636Z,49.90
2018-03-20T02:03:23.917Z,50.10
2018-03-20T02:05:52.470Z,50.80
2018-03-20T02:08:19.982Z,50.80
2018-03-20T02:10:47.514Z,52.40
2018-03-20T02:13:15.822Z,54.70
2018-03-20T02:15:43.467Z,54.60
2018-03-20T02:18:11.769Z,55.90
2018-03-20T02:20:39.282Z,55.90
2018-03-20T02:23:06.782Z,56.20
2018-03-20T02:25:34.298Z,57.60
2018-03-20T02:28:01.808Z,57.30
2018-03-20T02:30:29.335Z,58.40
2018-03-20T02:32:57.651Z,61.00
2018-03-20T02:35:25.187Z,60.90
2018-03-20T02:37:52.733Z,61.50
2018-03-20T02:40:21.724Z,63.90
2018-03-20T02:42:50.033Z,64.50
2018-03-20T02:45:17.544Z,64.40
2018-03-20T02:47:45.060Z,65.40
2018-03-20T02:50:17.041Z,66.30
2018-03-20T02:52:44.589Z,66.70
2018-03-20T02:55:12.110Z,67.10
2018-03-20T02:57:44.262Z,68.40
2018-03-20T03:00:13.771Z,69.20
2018-03-20T03:02:42.046Z,68.80
2018-03-20T03:05:10.421Z,69.20
2018-03-20T03:07:38.982Z,68.30
2018-03-20T03:10:06.527Z,68.20
2018-03-20T03:12:34.815Z,68.10
2018-03-20T03:15:02.319Z,68.10
2018-03-20T03:17:30.618Z,68.20
2018-03-20T03:19:58.126Z,68.20
2018-03-20T03:22:25.679Z,67.80
2018-03-20T03:24:53.511Z,67.80
2018-03-20T03:27:21.043Z,68.10
2018-03-20T03:29:49.349Z,68.20
2018-03-20T03:32:17.729Z,68.10
2018-03-20T03:34:45.249Z,68.90
2018-03-20T03:37:14.111Z,69.10
2018-03-20T03:39:41.643Z,69.10
2018-03-20T03:42:09.710Z,69.30
2018-03-20T03:44:37.232Z,69.50
2018-03-20T03:47:05.520Z,71.20
2018-03-20T03:49:33.826Z,71.20
2018-03-20T03:52:01.333Z,72.30
2018-03-20T03:54:29.614Z,75.20
2018-03-20T03:56:57.925Z,75.90
2018-03-20T03:59:26.225Z,75.80
2018-03-20T04:01:54.717Z,76.20
2018-03-20T04:04:22.229Z,76.60
2018-03-20T04:06:49.756Z,77.20
2018-03-20T04:09:17.265Z,77.30
2018-03-20T04:11:45.554Z,77.10
2018-03-20T04:14:13.085Z,76.90
2018-03-20T04:16:40.597Z,76.60
2018-03-20T04:19:08.902Z,76.80
2018-03-20T04:21:37.211Z,77.00
2018-03-20T04:24:05.480Z,76.90
2018-03-20T04:26:33.957Z,76.30
2018-03-20T04:29:01.474Z,76.30
2018-03-20T04:31:28.992Z,76.20
2018-03-20T04:33:56.512Z,75.60
2018-03-20T04:36:29.310Z,75.80
2018-03-20T04:39:05.086Z,75.80
2018-03-20T04:41:32.621Z,75.90
2018-03-20T04:44:00.908Z,76.70
2018-03-20T04:46:28.438Z,76.60
2018-03-20T04:48:56.727Z,76.90
2018-03-20T04:51:25.005Z,77.20
2018-03-20T04:53:53.297Z,76.90
2018-03-20T04:56:20.935Z,76.90
2018-03-20T04:58:49.696Z,77.70
2018-03-20T05:01:17.975Z,77.70
2018-03-20T05:03:45.500Z,77.30
2018-03-20T05:06:13.067Z,77.70
2018-03-20T05:08:40.642Z,78.30
2018-03-20T05:11:08.304Z,78.40
2018-03-20T05:26:36.723Z,81.30
2018-03-20T05:29:05.010Z,80.50
2018-03-20T05:31:36.564Z,80.50
2018-03-20T05:34:08.604Z,79.10
2018-03-20T05:36:36.978Z,79.10
2018-03-20T05:39:04.740Z,78.80
2018-03-20T05:41:32.280Z,78.00
2018-03-20T05:43:59.798Z,77.80
2018-03-20T05:46:33.219Z,77.90
2018-03-20T05:49:03.556Z,77.50
2018-03-20T05:51:37.418Z,77.20
2018-03-20T05:54:06.457Z,77.60
2018-03-20T05:56:33.979Z,77.60
2018-03-20T05:59:01.498Z,78.20
2018-03-20T06:01:29.585Z,78.30
2018-03-20T06:03:57.572Z,78.70
2018-03-20T06:06:26.194Z,79.50
2018-03-20T06:08:58.224Z,79.40
2018-03-20T06:11:26.910Z,79.60
2018-03-20T06:13:54.464Z,79.60
2018-03-20T06:16:22.850Z,79.10
2018-03-20T06:18:51.141Z,79.10
2018-03-20T06:21:19.312Z,79.10
2018-03-20T06:23:47.362Z,79.50
2018-03-20T06:26:15.659Z,80.10
2018-03-20T06:28:43.171Z,80.10
2018-03-20T06:31:11.186Z,80.10
2018-03-20T06:33:38.726Z,80.20
2018-03-20T06:36:07.006Z,81.50
2018-03-20T06:38:35.316Z,81.80
2018-03-20T06:41:02.832Z,81.80
2018-03-20T06:43:30.793Z,81.90
2018-03-20T06:45:59.743Z,82.30
2018-03-20T06:48:31.253Z,82.00
2018-03-20T06:50:59.578Z,81.60
2018-03-20T06:53:31.258Z,81.60
2018-03-20T06:55:59.576Z,81.50
2018-03-20T06:58:36.440Z,81.10
2018-03-20T07:01:08.016Z,81.10
2018-03-20T07:03:35.529Z,81.20
2018-03-20T07:06:03.050Z,81.20
2018-03-20T07:08:34.349Z,81.60
2018-03-20T07:11:01.873Z,81.70
2018-03-20T07:13:29.397Z,81.40
2018-03-20T07:16:02.202Z,80.50
2018-03-20T07:18:29.705Z,80.60
2018-03-20T07:20:57.305Z,80.30
2018-03-20T07:23:24.815Z,80.10
2018-03-20T07:25:52.320Z,80.00
2018-03-20T07:28:20.655Z,78.70
2018-03-20T07:30:48.194Z,78.70
2018-03-20T07:33:15.720Z,78.80
2018-03-20T07:35:43.654Z,79.20
2018-03-20T07:38:11.204Z,79.00
2018-03-20T07:40:39.430Z,78.50
2018-03-20T07:43:07.897Z,78.40
2018-03-20T07:45:36.180Z,78.40
2018-03-20T07:48:04.457Z,79.20
2018-03-20T07:50:31.982Z,79.20
2018-03-20T07:52:59.503Z,78.50
2018-03-20T07:55:28.738Z,78.40
2018-03-20T07:57:56.262Z,78.10
2018-03-20T08:00:23.785Z,77.70
2018-03-20T08:02:52.408Z,76.90
2018-03-20T08:05:24.789Z,77.00
2018-03-20T08:07:52.372Z,77.00
2018-03-20T08:10:19.877Z,76.30
2018-03-20T08:12:47.494Z,75.60
2018-03-20T08:15:15.070Z,75.80
2018-03-20T08:17:43.930Z,75.60
2018-03-20T08:20:11.453Z,74.70
2018-03-20T08:22:38.987Z,73.40
2018-03-20T08:25:11.513Z,74.00
2018-03-20T08:27:39.019Z,74.00
2018-03-20T08:30:07.298Z,73.30
2018-03-20T08:32:35.569Z,72.70
2018-03-20T08:35:03.869Z,71.60
2018-03-20T08:37:32.879Z,71.60
2018-03-20T08:40:00.389Z,69.80
2018-03-20T08:42:27.918Z,69.20
2018-03-20T08:44:55.437Z,69.50
2018-03-20T08:47:22.949Z,68.60
2018-03-20T08:49:50.975Z,68.60
2018-03-20T08:52:18.516Z,69.20
2018-03-20T08:54:46.795Z,67.20
2018-03-20T08:57:19.030Z,64.90
2018-03-20T08:59:50.518Z,64.90
2018-03-20T09:02:23.578Z,62.00
2018-03-20T09:04:51.095Z,62.00
2018-03-20T09:07:18.597Z,60.80
2018-03-20T09:09:46.143Z,60.30
2018-03-20T09:12:13.927Z,58.90
2018-03-20T09:14:41.496Z,56.40
2018-03-20T09:17:09.289Z,53.80
2018-03-20T09:19:36.874Z,54.50
2018-03-20T09:22:04.385Z,54.00
2018-03-20T09:24:34.722Z,54.70
2018-03-20T09:27:02.985Z,53.10
2018-03-20T09:29:31.740Z,53.10
2018-03-20T09:31:59.974Z,53.40
2018-03-20T09:39:50.743Z,46.50
2018-03-20T09:42:19.392Z,46.50
2018-03-20T09:44:49.259Z,46.00
2018-03-20T09:47:21.600Z,46.00
2018-03-20T09:49:49.109Z,48.00
2018-03-20T09:52:21.486Z,48.00
2018-03-20T09:54:49.802Z,48.80
2018-03-20T09:57:18.368Z,47.40
2018-03-20T09:59:47.255Z,43.80
2018-03-20T10:02:15.522Z,41.90
2018-03-20T10:04:43.838Z,41.40
2018-03-20T10:07:12.104Z,41.20
2018-03-20T10:09:39.632Z,38.50
2018-03-20T10:12:07.173Z,34.60
2018-03-20T10:14:36.363Z,34.80
2018-03-20T10:17:03.908Z,36.20
2018-03-20T10:22:27.166Z,33.30
2018-03-20T10:24:54.681Z,34.00
2018-03-20T10:27:22.236Z,33.20
2018-03-20T10:29:49.773Z,32.90
2018-03-20T10:32:17.340Z,31.40
2018-03-20T10:34:44.869Z,32.40
2018-03-20T10:37:12.396Z,29.60
2018-03-20T10:39:49.429Z,29.40
2018-03-20T10:42:17.485Z,29.40
2018-03-20T10:57:45.083Z,30.50
2018-03-20T11:00:12.610Z,31.10
2018-03-20T11:02:45.800Z,29.90
2018-03-20T11:05:13.320Z,27.50
2018-03-20T11:07:41.609Z,29.20
2018-03-20T11:10:09.137Z,29.20
2018-03-20T11:12:36.657Z,28.20
2018-03-20T11:15:04.172Z,29.10
2018-03-20T11:17:32.464Z,28.70
2018-03-20T11:20:00.673Z,28.70
2018-03-20T11:22:29.131Z,29.60
2018-03-20T11:24:56.660Z,29.50
2018-03-20T11:27:28.945Z,31.50
2018-03-20T11:29:56.517Z,31.50
2018-03-20T11:32:24.802Z,29.30
2018-03-20T11:34:52.577Z,29.30
2018-03-20T11:37:20.101Z,27.40
2018-03-20T11:39:48.453Z,26.90
2018-03-20T11:42:16.076Z,26.90
2018-03-20T11:44:46.609Z,26.60
2018-03-20T11:47:14.127Z,27.10
2018-03-20T11:49:42.445Z,26.60
2018-03-20T11:52:09.960Z,26.60
2018-03-20T11:54:38.424Z,25.90
2018-03-20T11:57:07.577Z,25.90
2018-03-20T11:59:35.117Z,25.50
2018-03-20T12:02:02.626Z,26.70
2018-03-20T12:04:34.107Z,26.90
2018-03-20T12:07:02.452Z,25.00
2018-03-20T12:09:50.648Z,25.00
2018-03-20T12:12:18.171Z,23.90
2018-03-20T12:14:45.751Z,25.90
2018-03-20T12:17:14.046Z,25.60
2018-03-20T12:19:45.451Z,25.60
2018-03-20T12:22:12.986Z,23.80
2018-03-20T12:24:40.504Z,25.00
2018-03-20T12:27:09.532Z,24.40
2018-03-20T12:29:37.060Z,24.40
2018-03-20T12:32:04.580Z,25.00
2018-03-20T12:34:33.128Z,26.20
2018-03-20T12:37:00.649Z,27.30
2018-03-20T12:39:28.967Z,26.80
2018-03-20T12:41:56.486Z,26.80
2018-03-20T12:44:24.798Z,23.70
2018-03-20T12:46:56.480Z,23.60
2018-03-20T12:49:24.114Z,24.90
2018-03-20T12:51:52.395Z,24.20
2018-03-20T12:54:20.312Z,22.60
2018-03-20T12:56:48.463Z,22.10
2018-03-20T12:59:15.970Z,21.10
2018-03-20T13:01:44.863Z,20.90
2018-03-20T13:04:19.516Z,20.80
2018-03-20T13:06:47.073Z,20.80
2018-03-20T13:09:14.595Z,21.40
2018-03-20T13:11:42.896Z,22.50
2018-03-20T13:14:10.424Z,22.40
2018-03-20T13:16:38.504Z,22.60
2018-03-20T13:19:06.034Z,22.70
2018-03-20T13:21:33.551Z,21.50
2018-03-20T13:24:01.146Z,22.10
2018-03-20T13:26:29.358Z,22.80
2018-03-20T13:28:57.647Z,21.20
2018-03-20T13:31:25.948Z,21.20
2018-03-20T13:33:53.485Z,21.20
2018-03-20T13:36:26.063Z,23.30
2018-03-20T13:38:53.647Z,23.10
2018-03-20T13:41:21.180Z,21.90
2018-03-20T13:43:49.455Z,22.90
2018-03-20T13:46:18.475Z,23.40
2018-03-20T13:48:45.980Z,23.80
2018-03-20T13:51:13.505Z,22.60
2018-03-20T13:53:41.039Z,22.20
2018-03-20T13:56:17.432Z,22.90
2018-03-20T13:58:45.295Z,20.60
2018-03-20T14:01:12.792Z,20.40
2018-03-20T14:03:40.317Z,20.40
2018-03-20T14:06:12.251Z,20.90
2018-03-20T14:08:39.960Z,20.60
2018-03-20T14:11:08.068Z,20.10
2018-03-20T14:13:36.510Z,21.60
2018-03-20T14:16:04.058Z,21.40
2018-03-20T14:18:31.593Z,19.90
2018-03-20T14:20:59.186Z,20.90
2018-03-20T14:23:26.757Z,20.80
2018-03-20T14:25:58.854Z,22.20
2018-03-20T14:28:26.983Z,22.50
2018-03-20T14:30:54.548Z,22.60
2018-03-20T14:33:25.964Z,22.80
2018-03-20T14:35:53.591Z,21.90
2018-03-20T14:38:21.895Z,21.20
2018-03-20T14:40:50.195Z,19.70
2018-03-20T14:43:17.729Z,19.60
2018-03-20T14:45:46.849Z,20.20
2018-03-20T14:48:18.723Z,20.20
2018-03-20T14:50:48.010Z,18.60
2018-03-20T14:53:15.551Z,19.00
2018-03-20T14:55:43.657Z,18.60
2018-03-20T14:58:11.222Z,19.30
2018-03-20T15:00:38.745Z,17.80
2018-03-20T15:03:06.264Z,18.20
2018-03-20T15:05:33.785Z,20.00
2018-03-20T15:08:01.306Z,20.60
2018-03-20T15:10:29.660Z,21.70
2018-03-20T15:12:57.188Z,21.60
2018-03-20T15:15:24.866Z,21.10
2018-03-20T15:17:52.425Z,20.80
2018-03-20T15:20:20.085Z,18.70
2018-03-20T15:22:48.914Z,18.50
2018-03-20T15:25:17.205Z,19.20
2018-03-20T15:27:45.505Z,18.40
2018-03-20T15:30:13.584Z,18.50
2018-03-20T15:32:41.113Z,19.50
2018-03-20T15:35:09.421Z,21.20
2018-03-20T15:37:36.934Z,21.10
2018-03-20T15:40:08.282Z,21.60
2018-03-20T15:42:35.886Z,21.70
2018-03-20T15:45:03.898Z,20.80
2018-03-20T15:47:31.424Z,21.00
2018-03-20T15:49:59.703Z,21.30
2018-03-20T15:52:27.219Z,21.10
2018-03-20T15:54:55.517Z,21.50
2018-03-20T15:57:23.044Z,21.50
2018-03-20T15:59:50.561Z,21.40
2018-03-20T16:02:18.127Z,21.20
2018-03-20T16:04:50.047Z,22.90
2018-03-20T16:07:18.350Z,22.80
2018-03-20T16:09:46.490Z,22.90
2018-03-20T16:12:14.805Z,23.50
2018-03-20T16:14:42.858Z,23.50
2018-03-20T16:17:10.414Z,23.60
2018-03-20T16:19:37.966Z,23.70
2018-03-20T16:22:06.367Z,26.20
2018-03-20T16:24:37.825Z,26.20
2018-03-20T16:27:05.458Z,26.80
2018-03-20T16:29:33.064Z,27.70
2018-03-20T16:32:04.690Z,27.20
2018-03-20T16:34:32.225Z,28.10
2018-03-20T16:37:01.054Z,28.80
2018-03-20T16:39:28.573Z,28.80
2018-03-20T16:41:57.557Z,29.10
2018-03-20T16:44:25.327Z,29.10
2018-03-20T16:46:53.392Z,29.30
2018-03-20T16:49:20.914Z,29.30
2018-03-20T16:51:48.423Z,28.90
2018-03-20T16:54:16.735Z,28.80
2018-03-20T16:56:44.267Z,28.80
2018-03-20T16:59:13.144Z,29.10
2018-03-20T17:01:42.132Z,29.30
2018-03-20T17:04:10.589Z,29.20
2018-03-20T17:06:38.100Z,29.60
2018-03-20T17:09:06.369Z,28.70
2018-03-20T17:11:34.657Z,28.90
2018-03-20T17:14:02.200Z,28.90
2018-03-20T17:16:30.824Z,29.30
2018-03-20T17:18:58.340Z,29.30
2018-03-20T17:21:26.664Z,30.00
2018-03-20T17:23:58.825Z,30.00
2018-03-20T17:26:26.344Z,30.00
2018-03-20T17:29:02.753Z,30.60
2018-03-20T17:31:30.270Z,30.60
2018-03-20T17:34:02.918Z,31.10
2018-03-20T17:36:30.426Z,31.00
2018-03-20T17:38:59.077Z,31.90
2018-03-20T17:41:28.430Z,31.80
2018-03-20T17:43:56.102Z,30.00
2018-03-20T17:46:23.617Z,31.30
2018-03-20T17:48:54.947Z,30.80
2018-03-20T17:51:22.470Z,31.10
2018-03-20T17:53:50.320Z,32.30
2018-03-20T17:56:17.851Z,32.30
2018-03-20T17:58:45.486Z,31.60
2018-03-20T18:01:13.129Z,31.70
2018-03-20T18:03:40.683Z,32.30
2018-03-20T18:06:08.280Z,32.70
2018-03-20T18:08:36.613Z,32.90
2018-03-20T18:11:04.123Z,32.60
2018-03-20T18:13:35.727Z,33.70
2018-03-20T18:16:03.238Z,34.60
2018-03-20T18:18:31.454Z,34.10
2018-03-20T18:20:58.918Z,33.70
2018-03-20T18:23:26.449Z,34.20
2018-03-20T18:25:54.724Z,34.10
2018-03-20T18:28:23.515Z,33.70
2018-03-20T18:30:51.800Z,34.10
2018-03-20T18:33:23.230Z,34.10
2018-03-20T18:35:54.831Z,35.00
2018-03-20T18:38:22.350Z,34.40
2018-03-20T18:40:51.022Z,35.90
2018-03-20T18:43:18.994Z,35.90
2018-03-20T18:45:46.515Z,36.10
2018-03-20T18:48:14.038Z,36.70
2018-03-20T18:50:43.110Z,35.70
2018-03-20T18:53:11.098Z,35.70
2018-03-20T18:55:39.402Z,36.10
2018-03-20T18:58:06.939Z,36.10
2018-03-20T19:00:35.753Z,35.70
2018-03-20T19:03:03.575Z,36.40
2018-03-20T19:05:31.091Z,35.60
2018-03-20T19:08:02.782Z,36.20
2018-03-20T19:10:30.316Z,36.10
2018-03-20T19:12:57.824Z,36.80
2018-03-20T19:15:25.363Z,36.90
2018-03-20T19:17:53.368Z,37.50
2018-03-20T19:20:25.057Z,37.10
2018-03-20T19:22:56.998Z,37.80
2018-03-20T19:25:24.526Z,38.20
2018-03-20T19:27:52.940Z,37.50
2018-03-20T19:30:20.575Z,37.40
2018-03-20T19:32:48.185Z,38.10
2018-03-20T19:35:15.716Z,38.00
2018-03-20T19:37:47.390Z,38.60
2018-03-20T19:40:14.937Z,38.10
2018-03-20T19:42:42.492Z,38.80
2018-03-20T19:45:11.054Z,38.40
2018-03-20T19:47:39.335Z,38.70
2018-03-20T19:50:08.913Z,38.90
2018-03-20T19:52:36.431Z,38.90
2018-03-20T19:55:04.968Z,39.20
2018-03-20T19:57:33.238Z,39.90
2018-03-20T20:00:00.778Z,39.70
2018-03-20T20:02:28.596Z,39.80
2018-03-20T20:04:56.688Z,39.30
2018-03-20T20:07:24.215Z,39.30
2018-03-20T20:09:55.809Z,39.60
2018-03-20T20:12:23.341Z,38.90
2018-03-20T20:14:54.769Z,39.80
2018-03-20T20:17:23.054Z,39.60
2018-03-20T20:19:50.614Z,39.60
2018-03-20T20:22:19.003Z,39.30
2018-03-20T20:24:47.277Z,40.20
2018-03-20T20:27:16.080Z,40.00
2018-03-20T20:29:43.616Z,40.00
2018-03-20T20:32:11.903Z,40.30
2018-03-20T20:34:40.285Z,40.80
2018-03-20T20:37:07.790Z,40.70
2018-03-20T20:39:35.320Z,41.00
2018-03-20T20:42:02.845Z,40.90
2018-03-20T20:57:30.418Z,40.40
2018-03-20T20:59:57.991Z,43.20
2018-03-20T21:02:25.525Z,43.00
2018-03-20T21:04:53.823Z,43.10
2018-03-20T21:07:21.380Z,43.00
2018-03-20T21:09:49.679Z,42.40
2018-03-20T21:12:17.206Z,42.10
2018-03-20T21:14:45.608Z,41.80
2018-03-20T21:17:13.126Z,41.70
2018-03-20T21:19:41.440Z,42.60
2018-03-20T21:22:08.937Z,42.50
2018-03-20T21:24:36.462Z,42.50
2018-03-20T21:27:04.874Z,42.70
2018-03-20T21:29:32.423Z,42.40
2018-03-20T21:31:59.921Z,42.60
2018-03-20T21:34:28.199Z,44.10
2018-03-20T21:36:56.476Z,44.20
2018-03-20T21:39:24.764Z,43.50
2018-03-20T21:41:56.846Z,43.90
2018-03-20T21:44:24.368Z,43.90
2018-03-20T21:46:52.715Z,43.90
2018-03-20T21:49:20.222Z,44.00
2018-03-20T21:51:48.549Z,44.30
2018-03-20T21:54:16.086Z,44.10
2018-03-20T21:56:43.616Z,44.70
2018-03-20T21:59:12.143Z,45.60
2018-03-20T22:01:40.925Z,45.60
2018-03-20T22:04:08.442Z,46.50
2018-03-20T22:06:36.715Z,46.60
2018-03-20T22:09:04.270Z,46.50
2018-03-20T22:11:32.224Z,46.30
2018-03-20T22:13:59.789Z,46.70
2018-03-20T22:16:27.329Z,46.50
2018-03-20T22:18:55.176Z,46.80
2018-03-20T22:21:22.717Z,46.20
2018-03-20T22:23:50.227Z,46.00
2018-03-20T22:26:17.758Z,46.10
2018-03-20T22:28:46.339Z,46.60
2018-03-20T22:31:13.892Z,47.00
2018-03-20T22:33:41.447Z,46.50
2018-03-20T22:49:13.993Z,47.00
2018-03-20T22:51:42.281Z,49.70
2018-03-20T22:54:09.812Z,49.70
2018-03-20T22:56:41.289Z,49.40
2018-03-20T22:59:08.817Z,50.10
2018-03-20T23:01:40.277Z,49.70
2018-03-20T23:04:07.794Z,50.00
2018-03-20T23:06:35.649Z,49.90
2018-03-20T23:09:03.166Z,49.40
2018-03-20T23:11:31.896Z,49.80
2018-03-20T23:13:59.388Z,49.60
2018-03-20T23:16:26.918Z,49.30
2018-03-20T23:18:54.432Z,49.90
2018-03-20T23:21:22.718Z,50.30
2018-03-20T23:23:51.003Z,50.70
2018-03-20T23:26:18.581Z,50.70
2018-03-20T23:28:46.204Z,51.40
2018-03-20T23:31:13.724Z,51.40
2018-03-20T23:33:41.831Z,51.70
2018-03-20T23:36:09.352Z,51.60
2018-03-20T23:38:36.868Z,52.20
2018-03-20T23:41:05.171Z,50.80
2018-03-20T23:43:32.677Z,50.70
2018-03-20T23:46:00.234Z,50.80
2018-03-20T23:48:27.770Z,51.10
2018-03-20T23:50:55.372Z,51.50
2018-03-20T23:53:22.896Z,52.00
2018-03-20T23:55:50.421Z,51.80
2018-03-20T23:58:17.931Z,52.30
